ADDO2: Cow Creek nr Addington, OK

Data processed at Fri 09Dec2022 04:59 GMT


All information presented herein is the property of the government of the United States of America and may be revised or deleted at any time without prior notice.
Dissemination of this information without the expressed written consent of the Public Affairs Office, Tulsa District U.S. Army Corps of Engineers is strictly prohibited.
These data are gathered electronically and, as presented, have not undergone any form of quality control. These data are not guaranteed to be valid or correct.
Go to home page.
Go to station list.

Downstream station:


Previous Day
Next Day
Current Day


                            
SHEF ID:       ADDO2     Cow Creek nr Addington, OK
STATION TYPE:  

               PRECIP     STAGE  RIV-FLOW   VOLTAGE
                   in        ft       cfs      volt
              Ccp-Rev   Ccp-Rev   Ccp-Rev   Ccp-Rev
(US/Central)
12/08 00:00      0.08      2.29         0     13.16
12/08 01:00      1.48      2.54         0     13.14
12/08 02:00      0.21      2.64         0     13.11
12/08 03:00      0.18      2.68         0     13.07
12/08 04:00      0.13      2.81         0     13.05
12/08 05:00      0.01      3.95         0     13.02
12/08 06:00      0.00      6.46        65     13.01
12/08 07:00      0.00      8.22       290     12.99
12/08 08:00      0.00      9.50       453     13.03
12/08 09:00      0.00      9.67       475     13.36
12/08 10:00      0.00      9.56       461     13.85
12/08 11:00      0.00      9.20       415     14.05
12/08 12:00      0.00      8.69       350     14.01
12/08 13:00      0.00      8.10       274     14.14
12/08 14:00      0.00      7.56       205     14.43
12/08 15:00      0.00      7.20       159     13.95
12/08 16:00      0.00      6.91       122     14.39
12/08 17:00      0.00      6.70        96     13.47
12/08 18:00      0.00      6.48        67     13.32
12/08 19:00      0.00      6.25        38     13.28
12/08 20:00      0.00      6.09        24     13.24
12/08 21:00      0.00      5.93        18     13.23
12/08 22:00      0.00      5.74        11     13.22
12/08 23:00      ----      ----      ----      ----